EmailTwitter


Observations de surface / Québec / EGNC

Régions: Québec | Canada | États-Unis | Europe | France | UK | Ailleurs
Station
Affichage
Infos & localisation pour EGNC | Aide pour décoder les METARs

Observations prises le 2017-09-26 à 15H50 UTC à CARLISLE, UK (EGNC)

Etat du ciel: ciel variable.

Température: 17.0 Celsius

Point de rosée: 12.0 Celsius

Humidité relative: 72%

Vents: Variable à 6 km/h ou 3 noeuds.

Pression au niveau moyen de la mer: 102.10 kilopascals.

Visibilité horizontale: 5.59 milles terrestres ou 8.95 kilomètres.

Observation METAR:

EGNC 261550Z VRB03KT 9000 SCT022 17/12 Q1021=